Time;durP1;ratioP1;P1;durP2;ratioP2;P2;SDS_P1;SDS_P2;PMS_P1;PMS_P2;Temp;Humidity;BMP_temperature;BMP_pressure;BME280_temperature;BME280_humidity;BME280_pressure;Samples;Min_cycle;Max_cycle;Signal;HPM_P1;HPM_P2
2022/12/02 00:01:19;;;;;;;57.10;27.02;;;2.90;99.90;;;;;;6188303;23;20013;-82
2022/12/02 00:03:56;;;;;;;53.63;26.17;;;3.00;99.90;;;;;;6214500;23;20019;-78
2022/12/02 00:06:29;;;;;;;52.78;27.15;;;3.00;99.90;;;;;;6220273;23;20012;-80
2022/12/02 00:09:14;;;;;;;52.92;27.00;;;3.00;99.90;;;;;;6220297;23;20023;-81
2022/12/02 00:11:40;;;;;;;54.28;26.67;;;3.00;99.90;;;;;;6166943;23;20083;-83
2022/12/02 00:14:16;;;;;;;51.78;26.63;;;3.00;99.90;;;;;;6220424;23;20027;-81
2022/12/02 00:16:42;;;;;;;51.05;26.70;;;3.00;99.90;;;;;;6222177;23;20019;-81
2022/12/02 00:19:07;;;;;;;53.90;27.70;;;3.00;99.90;;;;;;6192264;23;20087;-82
2022/12/02 00:21:33;;;;;;;52.40;26.50;;;3.10;99.90;;;;;;6191744;23;20012;-81
2022/12/02 00:23:59;;;;;;;52.17;26.05;;;3.10;99.90;;;;;;6166952;23;20082;-84
2022/12/02 00:26:25;;;;;;;52.63;26.98;;;3.00;99.90;;;;;;6192550;23;20076;-84
2022/12/02 00:28:50;;;;;;;56.42;28.58;;;3.10;99.90;;;;;;6217446;23;20400;-78
2022/12/02 00:31:16;;;;;;;55.67;27.40;;;3.00;99.90;;;;;;6193290;23;20048;-82
2022/12/02 00:33:42;;;;;;;52.85;28.65;;;3.10;99.90;;;;;;6192877;23;20103;-77
2022/12/02 00:36:07;;;;;;;49.22;26.73;;;3.10;99.90;;;;;;6192847;23;20019;-85
2022/12/02 00:38:33;;;;;;;54.28;27.95;;;3.00;99.90;;;;;;6191258;23;20478;-82
2022/12/02 00:40:58;;;;;;;58.67;29.63;;;3.10;99.90;;;;;;6218561;23;20016;-80
2022/12/02 00:48:56;;;;;;;54.03;28.00;;;3.20;99.90;;;;;;6217084;23;20023;-83
2022/12/02 00:51:21;;;;;;;56.20;27.60;;;3.10;99.90;;;;;;6217914;23;20359;-83
2022/12/02 00:53:47;;;;;;;57.67;28.88;;;3.20;99.90;;;;;;6216502;23;20115;-81
2022/12/02 00:56:12;;;;;;;51.97;27.02;;;3.10;99.90;;;;;;6217496;23;20546;-85
2022/12/02 00:58:38;;;;;;;57.47;28.65;;;3.10;99.90;;;;;;6191299;23;20012;-80
2022/12/02 01:01:04;;;;;;;59.17;29.38;;;3.10;99.90;;;;;;6192028;23;20122;-79
2022/12/02 01:03:30;;;;;;;52.58;27.50;;;3.10;99.90;;;;;;6217623;23;20012;-81
2022/12/02 01:05:55;;;;;;;53.88;27.50;;;3.10;99.90;;;;;;6192731;23;20019;-81
2022/12/02 01:08:26;;;;;;;51.55;26.70;;;3.10;99.90;;;;;;6218496;23;20016;-82
2022/12/02 01:10:52;;;;;;;51.78;24.80;;;3.00;99.90;;;;;;6202386;23;20012;-79
2022/12/02 01:13:18;;;;;;;50.55;25.38;;;3.00;99.90;;;;;;6222374;23;20027;-82
2022/12/02 01:15:44;;;;;;;46.10;24.23;;;3.00;99.90;;;;;;6187776;23;20036;-83
2022/12/02 01:18:10;;;;;;;53.30;24.17;;;3.00;99.90;;;;;;6186602;23;20017;-80
2022/12/02 01:21:15;;;;;;;50.38;25.10;;;3.00;99.90;;;;;;6186620;23;20020;-86
2022/12/02 01:23:42;;;;;;;47.67;24.58;;;2.90;99.90;;;;;;6185841;23;20016;-85
2022/12/02 01:26:07;;;;;;;46.10;23.20;;;3.00;99.90;;;;;;6162377;23;20016;-79
2022/12/02 01:28:33;;;;;;;45.20;23.73;;;2.90;99.90;;;;;;6161933;23;20369;-82
2022/12/02 01:30:59;;;;;;;46.05;23.38;;;3.00;99.90;;;;;;6189326;23;20091;-82
2022/12/02 01:33:24;;;;;;;42.95;22.45;;;3.10;99.90;;;;;;6187106;23;20090;-84
2022/12/02 01:35:50;;;;;;;45.45;22.25;;;3.00;99.90;;;;;;6162146;23;20127;-80
2022/12/02 01:38:15;;;;;;;46.05;22.30;;;3.00;99.90;;;;;;6161386;23;20012;-83
2022/12/02 01:40:41;;;;;;;48.58;22.90;;;3.00;99.90;;;;;;6187302;23;20341;-79
2022/12/02 01:43:07;;;;;;;46.50;23.13;;;2.90;99.90;;;;;;6161388;23;20337;-83
2022/12/02 01:45:33;;;;;;;42.60;20.90;;;3.00;99.90;;;;;;6187637;23;20778;-84
2022/12/02 01:48:00;;;;;;;54.38;24.20;;;2.90;99.90;;;;;;6187450;23;20143;-82
2022/12/02 01:50:27;;;;;;;51.33;24.85;;;2.90;99.90;;;;;;6188789;23;20416;-84
2022/12/02 01:52:53;;;;;;;48.80;23.00;;;2.90;99.90;;;;;;6160478;23;20449;-81
2022/12/02 01:55:22;;;;;;;49.60;23.77;;;2.90;99.90;;;;;;6186164;23;20020;-79
2022/12/02 01:57:48;;;;;;;55.35;25.15;;;3.00;99.90;;;;;;6186497;23;20012;-82
2022/12/02 02:00:15;;;;;;;54.67;24.63;;;2.90;99.90;;;;;;6160924;23;20016;-79
2022/12/02 02:02:40;;;;;;;54.70;25.42;;;2.90;99.90;;;;;;6161953;23;20116;-80
2022/12/02 02:05:29;;;;;;;53.08;25.17;;;2.90;99.90;;;;;;6161813;23;20024;-83
2022/12/02 02:07:57;;;;;;;55.90;24.65;;;2.80;99.90;;;;;;6186366;23;20097;-83
2022/12/02 02:10:26;;;;;;;56.95;26.65;;;2.90;99.90;;;;;;6160297;23;20013;-83
2022/12/02 02:12:52;;;;;;;58.47;26.98;;;2.80;99.90;;;;;;6162169;23;20095;-84
2022/12/02 02:15:20;;;;;;;52.58;25.25;;;2.80;99.90;;;;;;6180908;23;20016;-80
2022/12/02 02:17:46;;;;;;;54.38;25.45;;;2.80;99.90;;;;;;6243925;23;20377;-83
2022/12/02 02:20:16;;;;;;;58.75;26.83;;;2.90;99.90;;;;;;6191850;23;20026;-82
2022/12/02 02:23:11;;;;;;;58.75;27.80;;;2.80;99.90;;;;;;6192650;23;20014;-80
2022/12/02 02:25:39;;;;;;;53.83;26.73;;;2.90;99.90;;;;;;6218257;23;20417;-83
2022/12/02 02:28:08;;;;;;;61.75;28.02;;;2.80;99.90;;;;;;6196255;23;20254;-80
2022/12/02 02:30:35;;;;;;;61.70;27.65;;;2.90;99.90;;;;;;6199578;23;20032;-79
2022/12/02 02:33:04;;;;;;;60.75;28.17;;;2.70;99.90;;;;;;6199658;23;20428;-84
2022/12/02 02:36:09;;;;;;;63.53;29.73;;;2.80;99.90;;;;;;6220936;23;20012;-78
2022/12/02 02:38:36;;;;;;;58.33;27.67;;;2.90;99.90;;;;;;6215899;23;20020;-84
2022/12/02 02:41:02;;;;;;;62.88;27.75;;;2.90;99.90;;;;;;6191240;23;20027;-81
2022/12/02 02:43:29;;;;;;;67.05;28.52;;;2.80;99.90;;;;;;6190650;23;20019;-83
2022/12/02 02:45:56;;;;;;;65.05;26.98;;;2.80;99.90;;;;;;6191298;23;20012;-80
2022/12/02 02:48:22;;;;;;;60.08;26.85;;;2.90;99.90;;;;;;6216751;23;20044;-78
2022/12/02 02:50:49;;;;;;;62.35;28.80;;;2.90;99.90;;;;;;6196062;23;20063;-80
2022/12/02 02:53:18;;;;;;;61.17;27.70;;;2.90;99.90;;;;;;6196334;23;20110;-78
2022/12/02 02:55:44;;;;;;;61.90;28.10;;;2.90;99.90;;;;;;6196091;23;20016;-80
2022/12/02 02:58:19;;;;;;;64.63;27.15;;;2.80;99.90;;;;;;6216745;23;20019;-85
2022/12/02 03:00:50;;;;;;;66.40;28.58;;;2.90;99.90;;;;;;6192580;23;20150;-80
2022/12/02 03:03:18;;;;;;;59.35;28.08;;;2.70;99.90;;;;;;6217452;23;20074;-79
2022/12/02 03:05:45;;;;;;;57.08;26.42;;;2.70;99.90;;;;;;6217434;23;20012;-84
2022/12/02 03:08:11;;;;;;;59.35;27.90;;;2.80;99.90;;;;;;6191850;23;20020;-83
2022/12/02 03:10:37;;;;;;;57.15;26.02;;;2.70;99.90;;;;;;6219295;23;20012;-83
2022/12/02 03:13:03;;;;;;;50.65;24.48;;;2.80;99.90;;;;;;6218906;23;20055;-81
2022/12/02 03:15:29;;;;;;;50.70;25.10;;;2.70;99.90;;;;;;6197063;23;20028;-79
2022/12/02 03:17:55;;;;;;;50.33;25.52;;;2.80;99.90;;;;;;6188426;23;20035;-80
2022/12/02 03:20:22;;;;;;;55.50;24.52;;;2.70;99.90;;;;;;6163291;23;20013;-79
2022/12/02 03:22:48;;;;;;;54.28;24.58;;;2.60;99.90;;;;;;6162783;23;20071;-81
2022/12/02 03:25:14;;;;;;;48.45;25.13;;;2.60;99.90;;;;;;6162262;23;20023;-80
2022/12/02 03:27:40;;;;;;;54.70;24.70;;;2.60;99.90;;;;;;6187714;23;20131;-82
2022/12/02 03:30:07;;;;;;;49.63;23.92;;;2.70;99.90;;;;;;6187843;23;20195;-81
2022/12/02 03:32:33;;;;;;;50.60;24.23;;;2.60;99.90;;;;;;6162805;23;20047;-82
2022/12/02 03:35:01;;;;;;;58.13;24.58;;;2.60;99.90;;;;;;6162671;23;20087;-83
2022/12/02 03:37:27;;;;;;;50.03;24.67;;;2.50;99.90;;;;;;6162356;23;20282;-82
2022/12/02 03:39:53;;;;;;;47.75;22.02;;;2.40;99.90;;;;;;6161806;23;20151;-81
2022/12/02 03:42:19;;;;;;;46.75;23.17;;;2.50;99.90;;;;;;6138347;23;20339;-78
2022/12/02 03:44:45;;;;;;;50.80;24.73;;;2.60;99.90;;;;;;6187701;23;20009;-79
2022/12/02 03:47:11;;;;;;;53.15;24.75;;;2.50;99.90;;;;;;6188164;23;20314;-77
2022/12/02 03:49:37;;;;;;;48.10;23.83;;;2.50;99.90;;;;;;6161702;23;20023;-83
2022/12/02 03:52:03;;;;;;;50.75;24.85;;;2.50;99.90;;;;;;6162803;23;20016;-82
2022/12/02 03:54:29;;;;;;;52.92;24.90;;;2.50;99.90;;;;;;6190572;23;20023;-80
2022/12/02 03:56:54;;;;;;;54.50;24.33;;;2.40;99.90;;;;;;6170005;23;20016;-80
2022/12/02 03:59:24;;;;;;;51.83;24.50;;;2.40;99.90;;;;;;6194975;23;20013;-78
2022/12/02 04:01:50;;;;;;;53.67;25.20;;;2.50;99.90;;;;;;6190958;23;20019;-81
2022/12/02 04:04:16;;;;;;;52.55;22.90;;;2.50;99.90;;;;;;6162064;23;20016;-81
2022/12/02 04:06:41;;;;;;;59.20;25.73;;;2.50;99.90;;;;;;6187075;23;20103;-83
2022/12/02 04:09:07;;;;;;;52.75;24.77;;;2.50;99.90;;;;;;6186301;23;20017;-82
2022/12/02 04:11:33;;;;;;;56.53;25.60;;;2.40;99.90;;;;;;6162808;23;20017;-81
2022/12/02 04:13:58;;;;;;;54.45;25.77;;;2.50;99.90;;;;;;6164862;23;20021;-80
2022/12/02 04:16:24;;;;;;;55.53;25.83;;;2.50;99.90;;;;;;6218084;23;20056;-84
2022/12/02 04:18:50;;;;;;;60.40;26.33;;;2.40;99.90;;;;;;6167620;23;20019;-81
2022/12/02 04:21:16;;;;;;;64.57;26.73;;;2.50;99.90;;;;;;6217953;23;20091;-79
2022/12/02 04:23:41;;;;;;;60.67;25.45;;;2.50;99.90;;;;;;6217627;23;20095;-80
2022/12/02 04:26:07;;;;;;;61.97;25.77;;;2.60;99.90;;;;;;6192696;23;20090;-78
2022/12/02 04:28:33;;;;;;;66.75;28.08;;;2.50;99.90;;;;;;6217649;23;20364;-80
2022/12/02 04:30:58;;;;;;;58.67;26.23;;;2.60;99.90;;;;;;6192661;23;20020;-84
2022/12/02 04:33:24;;;;;;;58.25;27.20;;;2.50;99.90;;;;;;6217724;23;20051;-83
2022/12/02 04:35:50;;;;;;;62.22;27.80;;;2.50;99.90;;;;;;6218493;23;20016;-80
2022/12/02 04:38:15;;;;;;;59.92;26.60;;;2.50;99.90;;;;;;6192398;23;20016;-79
2022/12/02 04:40:41;;;;;;;65.70;27.85;;;2.50;99.90;;;;;;6218009;23;20440;-80
2022/12/02 04:43:08;;;;;;;61.65;27.52;;;2.50;99.90;;;;;;6191436;23;20086;-81
2022/12/02 04:45:34;;;;;;;56.08;26.80;;;2.50;99.90;;;;;;6218110;23;20340;-81
2022/12/02 04:48:00;;;;;;;62.58;26.45;;;2.50;99.90;;;;;;6192517;23;20016;-80
2022/12/02 04:50:25;;;;;;;58.78;24.55;;;2.60;99.90;;;;;;6193579;23;20016;-79
2022/12/02 04:52:51;;;;;;;56.88;26.90;;;2.60;99.90;;;;;;6192014;23;20063;-79
2022/12/02 04:55:16;;;;;;;66.25;27.67;;;2.60;99.90;;;;;;6193044;23;20074;-80
2022/12/02 04:57:42;;;;;;;60.25;26.52;;;2.60;99.90;;;;;;6219320;23;20092;-81
2022/12/02 05:00:09;;;;;;;61.58;28.02;;;2.50;99.90;;;;;;6218402;23;20089;-84
2022/12/02 05:02:34;;;;;;;68.15;27.83;;;2.50;99.90;;;;;;6192777;23;20012;-81
2022/12/02 05:05:00;;;;;;;65.30;27.80;;;2.50;99.90;;;;;;6217377;23;20381;-80
2022/12/02 05:07:26;;;;;;;67.25;28.50;;;2.60;99.90;;;;;;6193917;23;20375;-80
2022/12/02 05:09:51;;;;;;;66.75;27.58;;;2.50;99.90;;;;;;6193972;23;20091;-81
2022/12/02 05:12:17;;;;;;;68.00;29.05;;;2.50;99.90;;;;;;6193881;23;20016;-80
2022/12/02 05:14:43;;;;;;;71.38;28.65;;;2.50;99.90;;;;;;6187723;23;20028;-79
2022/12/02 05:17:08;;;;;;;69.53;28.73;;;2.50;99.90;;;;;;6212735;23;20091;-82
2022/12/02 05:19:34;;;;;;;67.35;29.38;;;2.50;99.90;;;;;;6212573;23;20024;-83
2022/12/02 05:22:00;;;;;;;63.22;28.52;;;2.50;99.90;;;;;;6212340;23;20012;-80
2022/12/02 05:24:25;;;;;;;68.82;29.20;;;2.50;99.90;;;;;;6211552;23;20084;-82
2022/12/02 05:26:51;;;;;;;70.68;29.65;;;2.40;99.90;;;;;;6187109;23;20036;-81
2022/12/02 05:29:17;;;;;;;66.72;29.73;;;2.60;99.90;;;;;;6186047;23;20020;-80
2022/12/02 05:31:42;;;;;;;70.68;29.00;;;2.50;99.90;;;;;;6211652;23;20015;-83
2022/12/02 05:34:08;;;;;;;70.32;28.90;;;2.50;99.90;;;;;;6186881;23;20134;-81
2022/12/02 05:36:34;;;;;;;77.45;32.00;;;2.50;99.90;;;;;;6187211;23;20027;-82
2022/12/02 05:38:59;;;;;;;74.88;30.42;;;2.50;99.90;;;;;;6188505;23;20380;-78
2022/12/02 05:41:25;;;;;;;72.22;31.02;;;2.50;99.90;;;;;;6188955;23;20099;-83
2022/12/02 05:43:51;;;;;;;75.90;30.75;;;2.50;99.90;;;;;;6212444;23;20016;-80
2022/12/02 05:46:19;;;;;;;79.82;31.20;;;2.30;99.90;;;;;;6212257;23;20044;-82
2022/12/02 05:48:47;;;;;;;77.65;30.75;;;2.40;99.90;;;;;;6211808;23;20344;-81
2022/12/02 05:51:18;;;;;;;75.93;30.08;;;2.30;99.90;;;;;;6212125;23;20069;-81
2022/12/02 05:53:45;;;;;;;87.43;34.15;;;2.30;99.90;;;;;;6210962;23;20093;-77
2022/12/02 05:56:24;;;;;;;79.30;32.05;;;2.40;99.90;;;;;;6187038;23;20048;-80
2022/12/02 05:58:51;;;;;;;87.53;32.55;;;2.50;99.90;;;;;;6186202;23;20444;-79
2022/12/02 06:01:38;;;;;;;87.70;33.65;;;2.50;99.90;;;;;;6186473;23;20111;-81
2022/12/02 06:04:05;;;;;;;78.63;31.63;;;2.50;99.90;;;;;;6211590;23;20019;-83
2022/12/02 06:06:53;;;;;;;84.68;32.72;;;2.40;99.90;;;;;;6213559;23;20019;-84
2022/12/02 06:09:31;;;;;;;91.68;33.78;;;2.40;99.90;;;;;;6187466;23;20016;-80
2022/12/02 06:11:56;;;;;;;86.07;32.30;;;2.40;99.90;;;;;;6212628;23;20020;-82
2022/12/02 06:14:27;;;;;;;80.55;31.90;;;2.50;99.90;;;;;;6186632;23;20058;-81
2022/12/02 06:16:55;;;;;;;84.10;31.65;;;2.60;99.90;;;;;;6186643;23;20445;-80
2022/12/02 06:19:24;;;;;;;85.75;32.88;;;2.60;99.90;;;;;;6187028;23;20456;-79
2022/12/02 06:22:30;;;;;;;89.97;32.50;;;2.60;99.90;;;;;;6221287;23;20097;-77
2022/12/02 06:25:01;;;;;;;83.45;31.45;;;2.50;99.90;;;;;;6195016;23;20099;-83
2022/12/02 06:27:27;;;;;;;87.82;32.97;;;2.60;99.90;;;;;;6191620;23;20444;-81
2022/12/02 06:30:03;;;;;;;88.25;33.78;;;2.60;99.90;;;;;;6215918;23;20048;-84
2022/12/02 06:32:37;;;;;;;85.95;32.25;;;2.60;99.90;;;;;;6212532;23;20016;-83
2022/12/02 06:35:17;;;;;;;89.60;34.10;;;2.50;99.90;;;;;;6211596;23;20019;-82
2022/12/02 06:37:43;;;;;;;87.38;34.88;;;2.40;99.90;;;;;;6187189;23;20041;-82
2022/12/02 06:40:32;;;;;;;98.28;32.90;;;2.60;99.90;;;;;;6211565;23;20351;-82
2022/12/02 06:43:00;;;;;;;96.72;34.17;;;2.60;99.90;;;;;;6211952;23;20368;-83
2022/12/02 06:45:32;;;;;;;87.13;34.13;;;2.50;99.90;;;;;;6214301;23;20008;-84
2022/12/02 06:48:24;;;;;;;90.30;34.22;;;2.60;99.90;;;;;;6214665;23;20027;-85
2022/12/02 06:51:19;;;;;;;96.75;33.40;;;2.70;99.90;;;;;;6188906;23;20023;-82
2022/12/02 06:53:46;;;;;;;100.70;34.57;;;2.70;99.90;;;;;;6214871;23;20021;-83
2022/12/02 06:56:26;;;;;;;90.45;33.28;;;2.30;99.90;;;;;;6215142;23;20013;-81
2022/12/02 06:58:59;;;;;;;94.20;33.97;;;2.50;99.90;;;;;;6214843;23;20102;-80
2022/12/02 07:01:37;;;;;;;101.63;35.38;;;2.50;99.90;;;;;;6215806;23;20091;-83
2022/12/02 07:04:31;;;;;;;95.28;35.35;;;2.50;99.90;;;;;;6189652;23;20116;-80
2022/12/02 07:10:37;;;;;;;91.55;34.75;;;2.50;99.90;;;;;;6216028;23;20019;-83
2022/12/02 07:13:12;;;;;;;96.60;34.83;;;2.50;99.90;;;;;;6214341;23;20012;-80
2022/12/02 07:15:41;;;;;;;88.13;34.58;;;2.50;99.90;;;;;;6195547;23;20077;-83
2022/12/02 07:18:18;;;;;;;92.68;34.50;;;2.50;99.90;;;;;;6139350;23;20095;-85
2022/12/02 07:20:45;;;;;;;90.05;34.85;;;2.60;99.90;;;;;;6189820;23;20009;-82
2022/12/02 07:23:20;;;;;;;88.78;32.67;;;2.60;99.90;;;;;;6195545;23;20012;-76
2022/12/02 07:25:45;;;;;;;87.05;35.05;;;2.70;99.90;;;;;;6188536;23;20031;-79
2022/12/02 07:28:23;;;;;;;90.28;36.28;;;2.90;99.90;;;;;;6213241;23;20017;-79
2022/12/02 07:31:01;;;;;;;86.07;32.88;;;2.90;99.90;;;;;;6186482;23;20020;-79
2022/12/02 07:33:29;;;;;;;83.18;32.00;;;2.70;99.90;;;;;;6208784;23;20019;-77
2022/12/02 07:35:55;;;;;;;77.93;32.22;;;2.90;99.90;;;;;;6210439;23;20067;-80
2022/12/02 07:38:21;;;;;;;68.53;30.58;;;2.90;99.90;;;;;;6212177;23;20013;-78
2022/12/02 07:40:47;;;;;;;70.35;31.50;;;2.80;99.90;;;;;;6195288;23;20091;-85
2022/12/02 07:43:13;;;;;;;75.90;31.58;;;2.90;99.90;;;;;;6162989;23;20096;-79
2022/12/02 07:45:38;;;;;;;69.82;30.70;;;2.70;99.90;;;;;;6188183;23;20047;-78
2022/12/02 07:48:04;;;;;;;71.90;31.25;;;2.80;99.90;;;;;;6162866;23;20025;-79
2022/12/02 07:50:30;;;;;;;78.63;33.20;;;2.80;99.90;;;;;;6162660;23;20451;-84
2022/12/02 07:52:56;;;;;;;77.50;33.40;;;2.80;99.90;;;;;;6164040;23;20034;-80
2022/12/02 07:55:21;;;;;;;80.13;33.92;;;2.90;99.90;;;;;;6164007;23;20420;-81
2022/12/02 07:57:47;;;;;;;84.25;34.42;;;2.70;99.90;;;;;;6166444;23;20036;-80
2022/12/02 08:00:13;;;;;;;81.43;34.30;;;2.80;99.90;;;;;;6190831;23;20503;-81
2022/12/02 08:02:39;;;;;;;87.28;34.88;;;2.80;99.90;;;;;;6189119;23;20035;-80
2022/12/02 08:05:05;;;;;;;85.20;35.33;;;2.70;99.90;;;;;;6187926;23;20005;-83
2022/12/02 08:07:31;;;;;;;89.55;36.72;;;2.70;99.90;;;;;;6188644;23;20415;-81
2022/12/02 08:09:56;;;;;;;84.93;34.35;;;2.70;99.90;;;;;;6187326;23;20012;-82
2022/12/02 08:12:22;;;;;;;83.45;34.22;;;2.50;99.90;;;;;;6162766;23;20091;-82
2022/12/02 08:14:49;;;;;;;74.78;30.77;;;2.50;99.90;;;;;;6167459;23;20021;-79
2022/12/02 08:17:15;;;;;;;79.80;32.17;;;2.60;99.90;;;;;;6188524;23;20056;-82
2022/12/02 08:19:41;;;;;;;70.22;29.08;;;2.50;99.90;;;;;;6187538;23;20024;-84
2022/12/02 08:22:07;;;;;;;68.85;26.90;;;2.40;99.90;;;;;;6187347;23;20016;-87
2022/12/02 08:24:33;;;;;;;64.13;27.73;;;2.50;99.90;;;;;;6186746;23;20009;-82
2022/12/02 08:26:58;;;;;;;60.97;26.05;;;2.40;99.90;;;;;;6188622;23;20406;-82
2022/12/02 08:29:24;;;;;;;64.45;28.15;;;2.40;99.90;;;;;;6187564;23;20021;-82
2022/12/02 08:31:51;;;;;;;62.80;27.27;;;2.30;99.90;;;;;;6187678;23;20016;-84
2022/12/02 08:34:17;;;;;;;75.13;27.98;;;2.30;99.90;;;;;;6187610;23;20016;-82
2022/12/02 08:36:46;;;;;;;72.82;26.42;;;2.30;99.90;;;;;;6213540;23;20016;-83
2022/12/02 08:39:12;;;;;;;69.63;29.45;;;2.20;99.90;;;;;;6188512;23;20063;-80
2022/12/02 08:41:38;;;;;;;75.35;30.80;;;2.10;99.90;;;;;;6188296;23;20055;-79
2022/12/02 08:44:04;;;;;;;71.97;28.08;;;2.00;99.90;;;;;;6190757;23;20925;-79
2022/12/02 08:46:30;;;;;;;77.35;29.15;;;1.90;99.90;;;;;;6224587;23;20016;-81
2022/12/02 08:48:56;;;;;;;62.90;24.70;;;2.10;99.90;;;;;;6213053;23;20024;-83
2022/12/02 08:51:42;;;;;;;70.45;28.50;;;2.10;99.90;;;;;;6212994;23;20013;-81
2022/12/02 08:54:13;;;;;;;73.82;30.25;;;1.90;99.90;;;;;;6212095;23;20016;-83
2022/12/02 08:56:39;;;;;;;70.40;28.73;;;1.90;99.90;;;;;;6212937;23;20016;-79
2022/12/02 08:59:04;;;;;;;67.78;27.52;;;2.10;99.90;;;;;;6187851;23;20023;-82
2022/12/02 09:01:30;;;;;;;69.97;27.02;;;2.20;99.90;;;;;;6212136;23;20096;-82
2022/12/02 09:03:55;;;;;;;75.38;29.60;;;2.10;99.90;;;;;;6211895;23;20048;-83
2022/12/02 09:06:21;;;;;;;72.63;28.98;;;2.00;99.90;;;;;;6211926;23;20086;-82
2022/12/02 09:08:47;;;;;;;65.40;27.52;;;2.10;99.90;;;;;;6186733;23;20403;-85
2022/12/02 09:11:12;;;;;;;72.45;29.55;;;2.20;99.90;;;;;;6212243;23;20015;-83
2022/12/02 09:13:39;;;;;;;70.05;28.60;;;1.90;99.90;;;;;;6187102;23;20024;-84
2022/12/02 09:16:05;;;;;;;72.30;28.25;;;2.20;99.90;;;;;;6166408;23;20102;-81
2022/12/02 09:18:31;;;;;;;64.55;26.15;;;2.10;99.90;;;;;;6162264;23;20020;-83
2022/12/02 09:20:57;;;;;;;70.15;28.75;;;2.00;99.90;;;;;;6161130;23;20015;-81
2022/12/02 09:23:22;;;;;;;66.93;27.17;;;2.00;99.90;;;;;;6161685;23;20615;-83
2022/12/02 09:25:48;;;;;;;66.30;27.50;;;2.10;99.90;;;;;;6187376;23;20097;-80
2022/12/02 09:28:29;;;;;;;70.70;28.25;;;2.10;99.90;;;;;;6063585;23;20029;-82
2022/12/02 09:30:55;;;;;;;68.97;27.38;;;2.00;99.90;;;;;;6063623;23;20115;-82
2022/12/02 09:33:20;;;;;;;69.75;27.50;;;2.00;99.90;;;;;;6039966;23;20022;-79
2022/12/02 09:35:46;;;;;;;71.75;27.38;;;2.00;99.90;;;;;;6039583;23;20018;-82
2022/12/02 09:38:12;;;;;;;75.28;28.05;;;2.00;99.90;;;;;;6039413;23;20026;-81
2022/12/02 09:40:38;;;;;;;78.20;28.98;;;2.20;99.90;;;;;;6041382;23;20478;-81
2022/12/02 09:43:04;;;;;;;82.25;28.73;;;2.20;99.90;;;;;;6066025;23;20376;-82
2022/12/02 09:45:30;;;;;;;76.93;26.98;;;2.30;99.90;;;;;;6041190;23;20027;-80
2022/12/02 09:47:56;;;;;;;85.53;30.48;;;2.20;99.90;;;;;;6069204;23;20096;-85
2022/12/02 09:50:23;;;;;;;74.32;29.15;;;2.20;99.90;;;;;;6043660;23;20014;-82
2022/12/02 09:52:49;;;;;;;73.80;30.38;;;2.00;99.90;;;;;;6044386;23;20014;-82
2022/12/02 09:55:19;;;;;;;77.05;29.55;;;2.20;99.90;;;;;;6040511;23;20082;-80
2022/12/02 09:57:46;;;;;;;68.05;27.02;;;2.20;99.90;;;;;;6040580;23;20091;-82
2022/12/02 10:00:19;;;;;;;69.22;28.98;;;2.40;99.90;;;;;;6063274;23;20073;-79
2022/12/02 10:02:54;;;;;;;75.07;28.60;;;2.20;99.90;;;;;;6064156;23;20183;-81
2022/12/02 10:05:25;;;;;;;64.28;25.48;;;2.30;99.90;;;;;;6105099;23;20019;-79
2022/12/02 10:07:54;;;;;;;63.65;27.10;;;2.40;99.90;;;;;;6137634;23;20044;-82
2022/12/02 10:10:41;;;;;;;62.60;26.10;;;2.60;99.90;;;;;;6136768;23;20312;-80
2022/12/02 10:13:14;;;;;;;56.28;25.98;;;2.60;99.90;;;;;;6161853;23;20297;-83
2022/12/02 10:15:41;;;;;;;60.35;25.20;;;2.40;99.90;;;;;;6170590;23;20056;-85
2022/12/02 10:18:25;;;;;;;57.30;25.55;;;2.60;99.90;;;;;;6213066;23;20028;-83
2022/12/02 10:20:51;;;;;;;52.78;24.42;;;2.40;99.90;;;;;;6214290;23;20179;-81
2022/12/02 10:23:19;;;;;;;57.00;25.00;;;2.40;99.90;;;;;;6188908;23;20043;-80
2022/12/02 10:25:47;;;;;;;61.63;27.38;;;2.30;99.90;;;;;;6214568;23;20012;-84
2022/12/02 10:28:34;;;;;;;61.05;25.80;;;2.40;99.90;;;;;;6189410;23;20044;-81
2022/12/02 10:31:07;;;;;;;59.95;25.10;;;2.50;99.90;;;;;;6169844;23;20336;-83
2022/12/02 10:33:39;;;;;;;56.53;27.77;;;2.50;99.90;;;;;;6219316;23;20440;-81
2022/12/02 10:36:06;;;;;;;56.55;26.23;;;2.50;99.90;;;;;;6219141;23;20020;-81
2022/12/02 10:38:33;;;;;;;62.10;27.33;;;2.50;99.90;;;;;;6189570;23;20028;-80
2022/12/02 10:41:11;;;;;;;53.83;26.35;;;2.50;99.90;;;;;;6213893;23;20058;-81
2022/12/02 10:43:37;;;;;;;59.20;26.23;;;2.50;99.90;;;;;;6189630;23;20012;-83
2022/12/02 10:46:03;;;;;;;62.08;27.08;;;2.50;99.90;;;;;;6214447;23;20072;-82
2022/12/02 10:48:34;;;;;;;58.95;28.02;;;2.60;99.90;;;;;;6214319;23;20421;-82
2022/12/02 10:51:00;;;;;;;56.47;27.92;;;2.40;99.90;;;;;;6211067;23;20020;-82
2022/12/02 10:53:29;;;;;;;52.85;24.10;;;2.50;99.90;;;;;;6212773;23;20456;-84
2022/12/02 10:55:56;;;;;;;59.85;29.05;;;2.60;99.90;;;;;;6212529;23;20016;-82
2022/12/02 10:58:29;;;;;;;61.50;30.58;;;2.50;99.90;;;;;;6188671;23;20052;-82
2022/12/02 11:00:56;;;;;;;53.53;28.23;;;2.40;99.90;;;;;;6213939;23;20076;-82
2022/12/02 11:03:22;;;;;;;61.92;29.10;;;2.40;99.90;;;;;;6187387;23;20027;-80
2022/12/02 11:06:25;;;;;;;56.15;29.30;;;2.30;99.90;;;;;;6189617;23;20020;-80
2022/12/02 11:08:56;;;;;;;54.63;29.05;;;2.30;99.90;;;;;;6214305;23;20016;-80
2022/12/02 11:11:25;;;;;;;51.33;25.05;;;2.40;99.90;;;;;;6216617;23;20020;-78
2022/12/02 11:13:59;;;;;;;58.05;28.33;;;2.40;99.90;;;;;;6214181;23;20117;-80
2022/12/02 11:16:28;;;;;;;54.53;26.65;;;2.60;99.90;;;;;;6190087;23;20020;-80
2022/12/02 11:19:04;;;;;;;55.70;28.50;;;2.50;99.90;;;;;;6214970;23;20462;-79
2022/12/02 11:21:32;;;;;;;58.85;30.02;;;2.70;99.90;;;;;;6215173;23;20009;-79
2022/12/02 11:24:22;;;;;;;64.38;31.60;;;2.60;99.90;;;;;;6192612;23;20013;-83
2022/12/02 11:27:03;;;;;;;60.70;30.30;;;2.70;99.90;;;;;;6189613;23;20020;-79
2022/12/02 11:29:42;;;;;;;56.92;28.50;;;2.80;99.90;;;;;;6210950;23;20083;-78
2022/12/02 11:32:26;;;;;;;61.42;32.05;;;2.70;99.90;;;;;;6209836;23;20021;-79
2022/12/02 11:34:57;;;;;;;62.92;33.65;;;2.80;99.90;;;;;;6210390;23;20800;-80
2022/12/02 11:37:28;;;;;;;63.55;34.20;;;2.70;99.90;;;;;;6210686;23;20044;-82
2022/12/02 11:39:54;;;;;;;63.15;33.70;;;2.70;99.90;;;;;;6209006;23;20017;-79
2022/12/02 11:42:23;;;;;;;59.30;33.42;;;2.60;99.90;;;;;;6185828;23;20436;-81
2022/12/02 11:44:50;;;;;;;62.88;33.78;;;2.70;99.90;;;;;;6210317;23;20111;-77
2022/12/02 11:47:28;;;;;;;67.03;35.80;;;2.70;99.90;;;;;;6185247;23;20060;-77
2022/12/02 11:49:56;;;;;;;65.43;34.63;;;2.90;99.90;;;;;;6209659;23;20012;-82
2022/12/02 11:52:23;;;;;;;64.28;35.83;;;2.80;99.90;;;;;;6160474;23;20012;-85
2022/12/02 11:55:10;;;;;;;59.67;33.90;;;2.80;99.90;;;;;;6185169;23;20324;-79
2022/12/02 11:57:56;;;;;;;69.15;36.58;;;2.90;99.90;;;;;;6189215;23;20071;-82
2022/12/02 12:00:27;;;;;;;62.38;32.83;;;2.90;99.90;;;;;;6229390;23;20017;-80
2022/12/02 12:03:09;;;;;;;63.47;36.80;;;2.90;99.90;;;;;;6185850;23;20016;-81
2022/12/02 12:05:35;;;;;;;64.15;36.22;;;2.70;99.90;;;;;;6212325;23;20379;-82
2022/12/02 12:08:01;;;;;;;60.50;35.00;;;2.70;99.90;;;;;;6159785;23;20432;-81
2022/12/02 12:10:30;;;;;;;57.55;33.60;;;2.90;99.90;;;;;;6208714;23;20015;-80
2022/12/02 12:13:12;;;;;;;58.53;34.38;;;2.80;99.90;;;;;;6185287;23;20008;-81
2022/12/02 12:15:53;;;;;;;54.95;30.25;;;2.70;99.90;;;;;;6208552;23;20466;-78
2022/12/02 12:18:37;;;;;;;56.13;33.83;;;2.80;99.90;;;;;;6218084;22;20020;-84
2022/12/02 12:21:04;;;;;;;58.83;33.67;;;2.90;99.90;;;;;;6217537;23;20019;-82
2022/12/02 12:23:39;;;;;;;55.28;32.55;;;2.80;99.90;;;;;;6217259;23;20019;-81
2022/12/02 12:26:07;;;;;;;53.70;30.77;;;2.80;99.90;;;;;;6218465;23;20016;-80
2022/12/02 12:28:35;;;;;;;51.47;28.38;;;2.80;99.90;;;;;;6192262;23;20455;-81
2022/12/02 12:31:02;;;;;;;54.30;31.00;;;2.80;99.90;;;;;;6192047;23;20019;-81
2022/12/02 12:33:28;;;;;;;54.10;29.92;;;2.70;99.90;;;;;;6217409;23;20039;-84
2022/12/02 12:35:55;;;;;;;44.90;25.83;;;2.80;99.90;;;;;;6191149;23;20440;-79
2022/12/02 12:38:22;;;;;;;53.13;30.95;;;2.80;99.90;;;;;;6187329;23;20090;-79
2022/12/02 12:40:48;;;;;;;50.92;28.27;;;2.70;99.90;;;;;;6189442;23;20008;-83
2022/12/02 12:43:14;;;;;;;49.67;27.65;;;2.60;99.90;;;;;;6214945;23;20012;-79
2022/12/02 12:45:40;;;;;;;49.63;28.77;;;2.70;99.90;;;;;;6191051;23;20008;-81
2022/12/02 12:48:07;;;;;;;52.38;29.13;;;2.60;99.90;;;;;;6214477;23;20050;-82
2022/12/02 12:50:33;;;;;;;45.33;22.38;;;2.60;99.90;;;;;;6214656;23;20440;-82
2022/12/02 12:52:59;;;;;;;49.42;29.52;;;2.60;99.90;;;;;;6214123;23;20055;-83
2022/12/02 12:55:24;;;;;;;52.22;30.35;;;2.70;99.90;;;;;;6240324;23;20016;-80